sensor_id;sensor_type;location;lat;lon;timestamp;P1;durP1;ratioP1;P2;durP2;ratioP2
12290;SDS011;6208;48.956;9.076;2024-01-15T00:00:41;21.07;;;11.40;;
12290;SDS011;6208;48.956;9.076;2024-01-15T00:03:25;21.53;;;10.93;;
12290;SDS011;6208;48.956;9.076;2024-01-15T00:06:09;20.50;;;11.13;;
12290;SDS011;6208;48.956;9.076;2024-01-15T00:08:53;21.93;;;11.90;;
12290;SDS011;6208;48.956;9.076;2024-01-15T00:11:38;19.97;;;10.97;;
12290;SDS011;6208;48.956;9.076;2024-01-15T00:14:22;21.03;;;11.43;;
12290;SDS011;6208;48.956;9.076;2024-01-15T00:17:06;19.77;;;10.53;;
12290;SDS011;6208;48.956;9.076;2024-01-15T00:19:50;24.83;;;12.03;;
12290;SDS011;6208;48.956;9.076;2024-01-15T00:22:35;27.10;;;12.50;;
12290;SDS011;6208;48.956;9.076;2024-01-15T00:25:19;25.40;;;12.23;;
12290;SDS011;6208;48.956;9.076;2024-01-15T00:28:04;23.43;;;12.10;;
12290;SDS011;6208;48.956;9.076;2024-01-15T00:30:48;21.20;;;10.20;;
12290;SDS011;6208;48.956;9.076;2024-01-15T00:33:33;24.33;;;11.37;;
12290;SDS011;6208;48.956;9.076;2024-01-15T00:36:17;19.47;;;10.80;;
12290;SDS011;6208;48.956;9.076;2024-01-15T00:39:01;22.17;;;10.90;;
12290;SDS011;6208;48.956;9.076;2024-01-15T00:41:48;21.23;;;11.37;;
12290;SDS011;6208;48.956;9.076;2024-01-15T00:44:32;24.10;;;12.07;;
12290;SDS011;6208;48.956;9.076;2024-01-15T00:47:17;20.87;;;10.53;;
12290;SDS011;6208;48.956;9.076;2024-01-15T00:50:02;20.33;;;11.57;;
12290;SDS011;6208;48.956;9.076;2024-01-15T00:52:47;19.00;;;11.10;;
12290;SDS011;6208;48.956;9.076;2024-01-15T00:55:31;20.33;;;11.33;;
12290;SDS011;6208;48.956;9.076;2024-01-15T00:58:16;18.63;;;10.80;;
12290;SDS011;6208;48.956;9.076;2024-01-15T01:01:00;21.77;;;11.40;;
12290;SDS011;6208;48.956;9.076;2024-01-15T01:03:44;23.83;;;11.50;;
12290;SDS011;6208;48.956;9.076;2024-01-15T01:06:28;22.43;;;11.33;;
12290;SDS011;6208;48.956;9.076;2024-01-15T01:09:12;24.60;;;13.40;;
12290;SDS011;6208;48.956;9.076;2024-01-15T01:11:56;25.67;;;12.50;;
12290;SDS011;6208;48.956;9.076;2024-01-15T01:14:40;22.17;;;11.87;;
12290;SDS011;6208;48.956;9.076;2024-01-15T01:17:25;20.87;;;11.30;;
12290;SDS011;6208;48.956;9.076;2024-01-15T01:20:09;20.93;;;11.57;;
12290;SDS011;6208;48.956;9.076;2024-01-15T01:22:54;23.93;;;11.57;;
12290;SDS011;6208;48.956;9.076;2024-01-15T01:25:37;25.73;;;13.30;;
12290;SDS011;6208;48.956;9.076;2024-01-15T01:28:21;22.00;;;11.97;;
12290;SDS011;6208;48.956;9.076;2024-01-15T01:31:06;24.43;;;12.87;;
12290;SDS011;6208;48.956;9.076;2024-01-15T01:33:50;23.27;;;12.33;;
12290;SDS011;6208;48.956;9.076;2024-01-15T01:36:34;21.30;;;12.17;;
12290;SDS011;6208;48.956;9.076;2024-01-15T01:39:18;25.23;;;12.67;;
12290;SDS011;6208;48.956;9.076;2024-01-15T01:42:02;20.87;;;11.43;;
12290;SDS011;6208;48.956;9.076;2024-01-15T01:44:46;21.80;;;12.00;;
12290;SDS011;6208;48.956;9.076;2024-01-15T01:47:30;20.23;;;10.67;;
12290;SDS011;6208;48.956;9.076;2024-01-15T01:50:15;21.63;;;10.63;;
12290;SDS011;6208;48.956;9.076;2024-01-15T01:53:00;25.03;;;11.10;;
12290;SDS011;6208;48.956;9.076;2024-01-15T01:55:47;22.30;;;12.30;;
12290;SDS011;6208;48.956;9.076;2024-01-15T01:58:32;21.77;;;12.27;;
12290;SDS011;6208;48.956;9.076;2024-01-15T02:01:17;22.23;;;12.20;;
12290;SDS011;6208;48.956;9.076;2024-01-15T02:04:03;22.50;;;11.53;;
12290;SDS011;6208;48.956;9.076;2024-01-15T02:06:48;22.70;;;12.37;;
12290;SDS011;6208;48.956;9.076;2024-01-15T02:09:32;24.23;;;12.50;;
12290;SDS011;6208;48.956;9.076;2024-01-15T02:12:17;21.83;;;12.13;;
12290;SDS011;6208;48.956;9.076;2024-01-15T02:15:01;21.03;;;11.07;;
12290;SDS011;6208;48.956;9.076;2024-01-15T02:17:58;21.03;;;11.53;;
12290;SDS011;6208;48.956;9.076;2024-01-15T02:20:46;18.83;;;10.17;;
12290;SDS011;6208;48.956;9.076;2024-01-15T02:23:31;20.63;;;11.70;;
12290;SDS011;6208;48.956;9.076;2024-01-15T02:26:15;24.23;;;12.83;;
12290;SDS011;6208;48.956;9.076;2024-01-15T02:28:59;20.57;;;10.70;;
12290;SDS011;6208;48.956;9.076;2024-01-15T02:31:43;18.70;;;10.50;;
12290;SDS011;6208;48.956;9.076;2024-01-15T02:34:31;21.60;;;10.43;;
12290;SDS011;6208;48.956;9.076;2024-01-15T02:37:18;18.53;;;10.50;;
12290;SDS011;6208;48.956;9.076;2024-01-15T02:40:04;20.90;;;11.33;;
12290;SDS011;6208;48.956;9.076;2024-01-15T02:42:48;18.93;;;10.70;;
12290;SDS011;6208;48.956;9.076;2024-01-15T02:45:32;21.60;;;10.93;;
12290;SDS011;6208;48.956;9.076;2024-01-15T02:48:16;19.23;;;10.40;;
12290;SDS011;6208;48.956;9.076;2024-01-15T02:51:01;17.67;;;10.57;;
12290;SDS011;6208;48.956;9.076;2024-01-15T02:53:45;20.27;;;10.37;;
12290;SDS011;6208;48.956;9.076;2024-01-15T02:56:30;19.70;;;11.83;;
12290;SDS011;6208;48.956;9.076;2024-01-15T02:59:14;20.20;;;10.90;;
12290;SDS011;6208;48.956;9.076;2024-01-15T03:01:58;16.53;;;9.93;;
12290;SDS011;6208;48.956;9.076;2024-01-15T03:04:45;19.23;;;10.10;;
12290;SDS011;6208;48.956;9.076;2024-01-15T03:07:30;18.73;;;10.47;;
12290;SDS011;6208;48.956;9.076;2024-01-15T03:10:14;18.87;;;10.73;;
12290;SDS011;6208;48.956;9.076;2024-01-15T03:12:58;19.83;;;11.03;;
12290;SDS011;6208;48.956;9.076;2024-01-15T03:15:42;20.07;;;10.93;;
12290;SDS011;6208;48.956;9.076;2024-01-15T03:18:27;19.60;;;11.10;;
12290;SDS011;6208;48.956;9.076;2024-01-15T03:21:11;19.07;;;11.07;;
12290;SDS011;6208;48.956;9.076;2024-01-15T03:23:55;17.13;;;10.00;;
12290;SDS011;6208;48.956;9.076;2024-01-15T03:26:39;16.97;;;9.60;;
12290;SDS011;6208;48.956;9.076;2024-01-15T03:29:23;17.27;;;10.10;;
12290;SDS011;6208;48.956;9.076;2024-01-15T03:32:07;17.37;;;10.37;;
12290;SDS011;6208;48.956;9.076;2024-01-15T03:34:51;21.67;;;11.17;;
12290;SDS011;6208;48.956;9.076;2024-01-15T03:37:36;15.77;;;10.10;;
12290;SDS011;6208;48.956;9.076;2024-01-15T03:40:20;17.30;;;9.47;;
12290;SDS011;6208;48.956;9.076;2024-01-15T03:43:04;19.37;;;10.37;;
12290;SDS011;6208;48.956;9.076;2024-01-15T03:45:48;16.47;;;9.77;;
12290;SDS011;6208;48.956;9.076;2024-01-15T03:48:32;16.73;;;9.57;;
12290;SDS011;6208;48.956;9.076;2024-01-15T03:51:17;15.97;;;9.87;;
12290;SDS011;6208;48.956;9.076;2024-01-15T03:54:02;15.23;;;10.50;;
12290;SDS011;6208;48.956;9.076;2024-01-15T03:56:47;16.07;;;9.73;;
12290;SDS011;6208;48.956;9.076;2024-01-15T03:59:31;18.90;;;10.20;;
12290;SDS011;6208;48.956;9.076;2024-01-15T04:02:15;16.03;;;10.37;;
12290;SDS011;6208;48.956;9.076;2024-01-15T04:04:59;15.63;;;9.73;;
12290;SDS011;6208;48.956;9.076;2024-01-15T04:07:43;15.57;;;9.97;;
12290;SDS011;6208;48.956;9.076;2024-01-15T04:10:27;16.30;;;9.57;;
12290;SDS011;6208;48.956;9.076;2024-01-15T04:13:11;16.70;;;9.30;;
12290;SDS011;6208;48.956;9.076;2024-01-15T04:15:56;15.03;;;9.27;;
12290;SDS011;6208;48.956;9.076;2024-01-15T04:18:40;19.63;;;9.70;;
12290;SDS011;6208;48.956;9.076;2024-01-15T04:21:24;15.27;;;9.07;;
12290;SDS011;6208;48.956;9.076;2024-01-15T04:24:08;14.30;;;9.40;;
12290;SDS011;6208;48.956;9.076;2024-01-15T04:26:52;13.77;;;8.80;;
12290;SDS011;6208;48.956;9.076;2024-01-15T04:29:37;14.83;;;8.43;;
12290;SDS011;6208;48.956;9.076;2024-01-15T04:32:23;14.93;;;9.07;;
12290;SDS011;6208;48.956;9.076;2024-01-15T04:35:07;14.13;;;9.17;;
12290;SDS011;6208;48.956;9.076;2024-01-15T04:37:51;16.23;;;9.60;;
12290;SDS011;6208;48.956;9.076;2024-01-15T04:40:36;15.03;;;9.63;;
12290;SDS011;6208;48.956;9.076;2024-01-15T04:43:20;16.20;;;10.17;;
12290;SDS011;6208;48.956;9.076;2024-01-15T04:46:05;13.70;;;9.10;;
12290;SDS011;6208;48.956;9.076;2024-01-15T04:48:50;15.00;;;9.10;;
12290;SDS011;6208;48.956;9.076;2024-01-15T04:51:34;14.20;;;9.50;;
12290;SDS011;6208;48.956;9.076;2024-01-15T04:54:18;13.43;;;9.53;;
12290;SDS011;6208;48.956;9.076;2024-01-15T04:57:03;14.97;;;9.37;;
12290;SDS011;6208;48.956;9.076;2024-01-15T04:59:47;15.27;;;9.87;;
12290;SDS011;6208;48.956;9.076;2024-01-15T05:02:31;16.40;;;9.17;;
12290;SDS011;6208;48.956;9.076;2024-01-15T05:05:16;13.40;;;9.33;;
12290;SDS011;6208;48.956;9.076;2024-01-15T05:08:00;15.30;;;8.77;;
12290;SDS011;6208;48.956;9.076;2024-01-15T05:10:44;13.77;;;8.87;;
12290;SDS011;6208;48.956;9.076;2024-01-15T05:13:28;13.33;;;8.43;;
12290;SDS011;6208;48.956;9.076;2024-01-15T05:16:12;11.10;;;7.97;;
12290;SDS011;6208;48.956;9.076;2024-01-15T05:18:56;13.87;;;9.07;;
12290;SDS011;6208;48.956;9.076;2024-01-15T05:21:40;12.87;;;8.23;;
12290;SDS011;6208;48.956;9.076;2024-01-15T05:24:24;16.70;;;8.87;;
12290;SDS011;6208;48.956;9.076;2024-01-15T05:27:09;12.63;;;7.87;;
12290;SDS011;6208;48.956;9.076;2024-01-15T05:29:54;12.63;;;8.67;;
12290;SDS011;6208;48.956;9.076;2024-01-15T05:32:37;11.53;;;7.97;;
12290;SDS011;6208;48.956;9.076;2024-01-15T05:35:21;13.20;;;7.70;;
12290;SDS011;6208;48.956;9.076;2024-01-15T05:38:05;12.23;;;7.97;;
12290;SDS011;6208;48.956;9.076;2024-01-15T05:40:49;12.73;;;7.97;;
12290;SDS011;6208;48.956;9.076;2024-01-15T05:43:33;11.27;;;7.33;;
12290;SDS011;6208;48.956;9.076;2024-01-15T05:46:17;11.93;;;8.20;;
12290;SDS011;6208;48.956;9.076;2024-01-15T05:49:01;10.77;;;6.80;;
12290;SDS011;6208;48.956;9.076;2024-01-15T05:51:45;11.07;;;6.93;;
12290;SDS011;6208;48.956;9.076;2024-01-15T05:54:29;10.20;;;6.80;;
12290;SDS011;6208;48.956;9.076;2024-01-15T05:57:13;11.33;;;7.60;;
12290;SDS011;6208;48.956;9.076;2024-01-15T05:59:58;10.30;;;7.40;;
12290;SDS011;6208;48.956;9.076;2024-01-15T06:02:43;12.03;;;7.17;;
12290;SDS011;6208;48.956;9.076;2024-01-15T06:05:27;9.33;;;6.70;;
12290;SDS011;6208;48.956;9.076;2024-01-15T06:08:11;8.70;;;6.73;;
12290;SDS011;6208;48.956;9.076;2024-01-15T06:10:56;14.17;;;6.60;;
12290;SDS011;6208;48.956;9.076;2024-01-15T06:13:40;9.30;;;6.53;;
12290;SDS011;6208;48.956;9.076;2024-01-15T06:16:25;8.10;;;5.90;;
12290;SDS011;6208;48.956;9.076;2024-01-15T06:19:09;8.83;;;5.97;;
12290;SDS011;6208;48.956;9.076;2024-01-15T06:21:53;7.00;;;6.00;;
12290;SDS011;6208;48.956;9.076;2024-01-15T06:24:37;8.53;;;6.33;;
12290;SDS011;6208;48.956;9.076;2024-01-15T06:27:21;7.77;;;6.10;;
12290;SDS011;6208;48.956;9.076;2024-01-15T06:30:06;7.80;;;5.90;;
12290;SDS011;6208;48.956;9.076;2024-01-15T06:32:50;11.30;;;6.57;;
12290;SDS011;6208;48.956;9.076;2024-01-15T06:35:34;11.80;;;7.50;;
12290;SDS011;6208;48.956;9.076;2024-01-15T06:38:18;10.83;;;7.10;;
12290;SDS011;6208;48.956;9.076;2024-01-15T06:41:02;9.40;;;6.80;;
12290;SDS011;6208;48.956;9.076;2024-01-15T06:43:47;10.67;;;6.77;;
12290;SDS011;6208;48.956;9.076;2024-01-15T06:46:32;9.33;;;6.77;;
12290;SDS011;6208;48.956;9.076;2024-01-15T06:49:16;8.37;;;7.57;;
12290;SDS011;6208;48.956;9.076;2024-01-15T06:52:00;7.70;;;6.67;;
12290;SDS011;6208;48.956;9.076;2024-01-15T06:54:44;11.77;;;7.43;;
12290;SDS011;6208;48.956;9.076;2024-01-15T06:57:28;13.83;;;7.83;;
12290;SDS011;6208;48.956;9.076;2024-01-15T07:00:13;10.30;;;7.40;;
12290;SDS011;6208;48.956;9.076;2024-01-15T07:02:57;10.77;;;7.30;;
12290;SDS011;6208;48.956;9.076;2024-01-15T07:05:41;12.33;;;7.50;;
12290;SDS011;6208;48.956;9.076;2024-01-15T07:08:25;11.47;;;7.97;;
12290;SDS011;6208;48.956;9.076;2024-01-15T07:11:09;10.17;;;7.53;;
12290;SDS011;6208;48.956;9.076;2024-01-15T07:13:53;8.40;;;6.90;;
12290;SDS011;6208;48.956;9.076;2024-01-15T07:16:38;10.73;;;6.90;;
12290;SDS011;6208;48.956;9.076;2024-01-15T07:19:21;9.47;;;6.93;;
12290;SDS011;6208;48.956;9.076;2024-01-15T07:22:06;9.00;;;7.03;;
12290;SDS011;6208;48.956;9.076;2024-01-15T07:24:50;10.37;;;7.87;;
12290;SDS011;6208;48.956;9.076;2024-01-15T07:27:34;9.30;;;6.83;;
12290;SDS011;6208;48.956;9.076;2024-01-15T07:30:18;10.00;;;6.90;;
12290;SDS011;6208;48.956;9.076;2024-01-15T07:33:03;10.97;;;7.13;;
12290;SDS011;6208;48.956;9.076;2024-01-15T07:35:47;10.50;;;7.30;;
12290;SDS011;6208;48.956;9.076;2024-01-15T07:38:31;12.63;;;7.53;;
12290;SDS011;6208;48.956;9.076;2024-01-15T07:41:15;10.37;;;7.33;;
12290;SDS011;6208;48.956;9.076;2024-01-15T07:43:59;8.53;;;7.07;;
12290;SDS011;6208;48.956;9.076;2024-01-15T07:46:44;16.20;;;8.17;;
12290;SDS011;6208;48.956;9.076;2024-01-15T07:49:29;10.40;;;7.17;;
12290;SDS011;6208;48.956;9.076;2024-01-15T07:52:13;8.63;;;6.70;;
12290;SDS011;6208;48.956;9.076;2024-01-15T07:54:57;8.73;;;6.57;;
12290;SDS011;6208;48.956;9.076;2024-01-15T07:57:43;10.03;;;7.50;;
12290;SDS011;6208;48.956;9.076;2024-01-15T08:00:27;10.83;;;7.03;;
12290;SDS011;6208;48.956;9.076;2024-01-15T08:03:11;10.63;;;7.40;;
12290;SDS011;6208;48.956;9.076;2024-01-15T08:05:56;11.40;;;7.50;;
12290;SDS011;6208;48.956;9.076;2024-01-15T08:08:43;11.27;;;7.63;;
12290;SDS011;6208;48.956;9.076;2024-01-15T08:11:26;9.97;;;7.43;;
12290;SDS011;6208;48.956;9.076;2024-01-15T08:14:12;9.87;;;7.23;;
12290;SDS011;6208;48.956;9.076;2024-01-15T08:16:57;9.67;;;6.70;;
12290;SDS011;6208;48.956;9.076;2024-01-15T08:19:41;9.80;;;6.33;;
12290;SDS011;6208;48.956;9.076;2024-01-15T08:22:26;7.57;;;5.67;;
12290;SDS011;6208;48.956;9.076;2024-01-15T08:25:11;7.83;;;5.57;;
12290;SDS011;6208;48.956;9.076;2024-01-15T08:27:56;8.30;;;5.97;;
12290;SDS011;6208;48.956;9.076;2024-01-15T08:30:41;11.00;;;5.80;;
12290;SDS011;6208;48.956;9.076;2024-01-15T08:33:25;8.17;;;5.67;;
12290;SDS011;6208;48.956;9.076;2024-01-15T08:36:09;12.00;;;6.13;;
12290;SDS011;6208;48.956;9.076;2024-01-15T08:38:53;7.13;;;5.73;;
12290;SDS011;6208;48.956;9.076;2024-01-15T08:41:37;6.50;;;5.30;;
12290;SDS011;6208;48.956;9.076;2024-01-15T08:44:21;10.73;;;6.63;;
12290;SDS011;6208;48.956;9.076;2024-01-15T08:47:05;7.53;;;5.27;;
12290;SDS011;6208;48.956;9.076;2024-01-15T08:49:49;7.60;;;5.37;;
12290;SDS011;6208;48.956;9.076;2024-01-15T08:52:33;8.93;;;5.97;;
12290;SDS011;6208;48.956;9.076;2024-01-15T08:55:17;8.33;;;5.63;;
12290;SDS011;6208;48.956;9.076;2024-01-15T08:58:01;6.80;;;5.03;;
12290;SDS011;6208;48.956;9.076;2024-01-15T09:00:47;8.17;;;5.60;;
12290;SDS011;6208;48.956;9.076;2024-01-15T09:03:31;7.00;;;5.20;;
12290;SDS011;6208;48.956;9.076;2024-01-15T09:06:16;6.63;;;5.70;;
12290;SDS011;6208;48.956;9.076;2024-01-15T09:09:00;7.13;;;5.07;;
12290;SDS011;6208;48.956;9.076;2024-01-15T09:11:44;5.83;;;4.53;;
12290;SDS011;6208;48.956;9.076;2024-01-15T09:14:28;8.37;;;5.33;;
12290;SDS011;6208;48.956;9.076;2024-01-15T09:17:12;10.90;;;4.87;;
12290;SDS011;6208;48.956;9.076;2024-01-15T09:19:56;7.83;;;4.93;;
12290;SDS011;6208;48.956;9.076;2024-01-15T09:22:41;6.00;;;5.23;;
12290;SDS011;6208;48.956;9.076;2024-01-15T09:25:25;8.77;;;5.30;;
12290;SDS011;6208;48.956;9.076;2024-01-15T09:28:09;7.90;;;4.97;;
12290;SDS011;6208;48.956;9.076;2024-01-15T09:30:54;5.97;;;4.83;;
12290;SDS011;6208;48.956;9.076;2024-01-15T09:33:38;5.83;;;4.70;;
12290;SDS011;6208;48.956;9.076;2024-01-15T09:36:22;5.60;;;4.33;;
12290;SDS011;6208;48.956;9.076;2024-01-15T09:39:06;8.60;;;5.23;;
12290;SDS011;6208;48.956;9.076;2024-01-15T09:41:52;8.53;;;4.73;;
12290;SDS011;6208;48.956;9.076;2024-01-15T09:44:37;6.20;;;4.60;;
12290;SDS011;6208;48.956;9.076;2024-01-15T09:47:22;7.83;;;4.53;;
12290;SDS011;6208;48.956;9.076;2024-01-15T09:50:08;7.30;;;4.77;;
12290;SDS011;6208;48.956;9.076;2024-01-15T09:52:52;6.93;;;4.20;;
12290;SDS011;6208;48.956;9.076;2024-01-15T09:55:38;5.87;;;4.40;;
12290;SDS011;6208;48.956;9.076;2024-01-15T09:58:23;5.47;;;4.17;;
12290;SDS011;6208;48.956;9.076;2024-01-15T10:01:08;7.30;;;4.87;;
12290;SDS011;6208;48.956;9.076;2024-01-15T10:03:54;4.80;;;4.10;;
12290;SDS011;6208;48.956;9.076;2024-01-15T10:06:39;6.90;;;4.27;;
12290;SDS011;6208;48.956;9.076;2024-01-15T10:09:29;6.60;;;4.20;;
12290;SDS011;6208;48.956;9.076;2024-01-15T10:12:14;6.13;;;4.33;;
12290;SDS011;6208;48.956;9.076;2024-01-15T10:14:59;4.37;;;3.80;;
12290;SDS011;6208;48.956;9.076;2024-01-15T10:17:42;5.87;;;4.57;;
12290;SDS011;6208;48.956;9.076;2024-01-15T10:20:27;3.63;;;3.33;;
12290;SDS011;6208;48.956;9.076;2024-01-15T10:23:11;5.33;;;3.63;;
12290;SDS011;6208;48.956;9.076;2024-01-15T10:25:56;5.43;;;3.70;;
12290;SDS011;6208;48.956;9.076;2024-01-15T10:28:41;5.33;;;3.40;;
12290;SDS011;6208;48.956;9.076;2024-01-15T10:31:26;4.10;;;3.70;;
12290;SDS011;6208;48.956;9.076;2024-01-15T10:34:11;5.07;;;3.90;;
12290;SDS011;6208;48.956;9.076;2024-01-15T10:36:56;7.17;;;4.13;;
12290;SDS011;6208;48.956;9.076;2024-01-15T10:39:40;5.63;;;3.87;;
12290;SDS011;6208;48.956;9.076;2024-01-15T10:42:24;3.47;;;3.17;;
12290;SDS011;6208;48.956;9.076;2024-01-15T10:45:08;3.63;;;3.20;;
12290;SDS011;6208;48.956;9.076;2024-01-15T10:47:53;4.27;;;3.87;;
12290;SDS011;6208;48.956;9.076;2024-01-15T10:50:38;4.13;;;3.67;;
12290;SDS011;6208;48.956;9.076;2024-01-15T10:53:23;5.57;;;3.70;;
12290;SDS011;6208;48.956;9.076;2024-01-15T10:56:11;5.10;;;4.23;;
12290;SDS011;6208;48.956;9.076;2024-01-15T10:58:57;5.13;;;4.30;;
12290;SDS011;6208;48.956;9.076;2024-01-15T11:01:42;7.33;;;4.33;;
12290;SDS011;6208;48.956;9.076;2024-01-15T11:04:27;8.33;;;4.50;;
12290;SDS011;6208;48.956;9.076;2024-01-15T11:07:12;5.20;;;3.80;;
12290;SDS011;6208;48.956;9.076;2024-01-15T11:09:57;5.43;;;4.23;;
12290;SDS011;6208;48.956;9.076;2024-01-15T11:12:42;5.37;;;3.80;;
12290;SDS011;6208;48.956;9.076;2024-01-15T11:15:27;4.23;;;3.80;;
12290;SDS011;6208;48.956;9.076;2024-01-15T11:18:12;6.27;;;4.03;;
12290;SDS011;6208;48.956;9.076;2024-01-15T11:24:32;4.33;;;3.83;;
12290;SDS011;6208;48.956;9.076;2024-01-15T11:27:19;5.00;;;4.40;;
12290;SDS011;6208;48.956;9.076;2024-01-15T11:30:27;4.57;;;4.17;;
12290;SDS011;6208;48.956;9.076;2024-01-15T11:36:17;4.83;;;4.10;;
12290;SDS011;6208;48.956;9.076;2024-01-15T11:39:24;4.77;;;4.30;;
12290;SDS011;6208;48.956;9.076;2024-01-15T11:42:09;4.30;;;3.90;;
12290;SDS011;6208;48.956;9.076;2024-01-15T11:44:55;4.20;;;3.63;;
12290;SDS011;6208;48.956;9.076;2024-01-15T11:48:03;4.63;;;4.23;;
12290;SDS011;6208;48.956;9.076;2024-01-15T11:51:05;6.63;;;4.30;;
12290;SDS011;6208;48.956;9.076;2024-01-15T11:53:51;4.73;;;4.27;;
12290;SDS011;6208;48.956;9.076;2024-01-15T11:56:41;6.60;;;3.97;;
12290;SDS011;6208;48.956;9.076;2024-01-15T11:59:25;5.60;;;4.43;;
12290;SDS011;6208;48.956;9.076;2024-01-15T12:02:10;5.27;;;4.10;;
12290;SDS011;6208;48.956;9.076;2024-01-15T12:04:56;4.53;;;4.13;;
12290;SDS011;6208;48.956;9.076;2024-01-15T12:07:41;6.20;;;4.57;;
12290;SDS011;6208;48.956;9.076;2024-01-15T12:10:26;4.40;;;4.00;;
12290;SDS011;6208;48.956;9.076;2024-01-15T12:13:11;4.17;;;3.77;;
12290;SDS011;6208;48.956;9.076;2024-01-15T12:15:57;4.47;;;3.87;;
12290;SDS011;6208;48.956;9.076;2024-01-15T12:18:45;4.30;;;3.90;;
12290;SDS011;6208;48.956;9.076;2024-01-15T12:21:29;4.20;;;3.80;;
12290;SDS011;6208;48.956;9.076;2024-01-15T12:24:13;4.60;;;3.83;;
12290;SDS011;6208;48.956;9.076;2024-01-15T12:26:58;5.87;;;4.60;;
12290;SDS011;6208;48.956;9.076;2024-01-15T12:29:43;6.10;;;4.57;;
12290;SDS011;6208;48.956;9.076;2024-01-15T12:32:27;5.13;;;4.33;;
12290;SDS011;6208;48.956;9.076;2024-01-15T12:35:13;5.47;;;4.40;;
12290;SDS011;6208;48.956;9.076;2024-01-15T12:37:59;4.90;;;4.10;;
12290;SDS011;6208;48.956;9.076;2024-01-15T12:40:46;6.07;;;3.80;;
12290;SDS011;6208;48.956;9.076;2024-01-15T12:43:30;5.20;;;4.00;;
12290;SDS011;6208;48.956;9.076;2024-01-15T12:46:14;4.70;;;4.23;;
12290;SDS011;6208;48.956;9.076;2024-01-15T12:48:58;4.43;;;4.03;;
12290;SDS011;6208;48.956;9.076;2024-01-15T12:51:42;4.90;;;4.00;;
12290;SDS011;6208;48.956;9.076;2024-01-15T12:54:26;4.80;;;4.30;;
12290;SDS011;6208;48.956;9.076;2024-01-15T12:57:10;5.07;;;4.57;;
12290;SDS011;6208;48.956;9.076;2024-01-15T12:59:54;4.50;;;4.10;;
12290;SDS011;6208;48.956;9.076;2024-01-15T13:02:39;4.43;;;4.03;;
12290;SDS011;6208;48.956;9.076;2024-01-15T13:05:24;6.80;;;4.30;;
12290;SDS011;6208;48.956;9.076;2024-01-15T13:08:11;4.93;;;4.43;;
12290;SDS011;6208;48.956;9.076;2024-01-15T13:10:55;6.43;;;5.17;;
12290;SDS011;6208;48.956;9.076;2024-01-15T13:13:41;6.17;;;4.97;;
12290;SDS011;6208;48.956;9.076;2024-01-15T13:16:25;6.20;;;5.07;;
12290;SDS011;6208;48.956;9.076;2024-01-15T13:19:13;6.73;;;5.47;;
12290;SDS011;6208;48.956;9.076;2024-01-15T13:21:58;7.17;;;5.80;;
12290;SDS011;6208;48.956;9.076;2024-01-15T13:24:43;6.73;;;5.40;;
12290;SDS011;6208;48.956;9.076;2024-01-15T13:27:27;5.83;;;5.17;;
12290;SDS011;6208;48.956;9.076;2024-01-15T13:30:12;9.83;;;5.73;;
12290;SDS011;6208;48.956;9.076;2024-01-15T13:32:56;6.90;;;5.43;;
12290;SDS011;6208;48.956;9.076;2024-01-15T13:35:41;8.60;;;6.10;;
12290;SDS011;6208;48.956;9.076;2024-01-15T13:38:25;7.27;;;5.70;;
12290;SDS011;6208;48.956;9.076;2024-01-15T13:41:11;5.93;;;5.43;;
12290;SDS011;6208;48.956;9.076;2024-01-15T13:43:55;5.90;;;4.93;;
12290;SDS011;6208;48.956;9.076;2024-01-15T13:46:39;6.30;;;4.70;;
12290;SDS011;6208;48.956;9.076;2024-01-15T13:49:23;7.50;;;5.73;;
12290;SDS011;6208;48.956;9.076;2024-01-15T13:52:07;8.50;;;6.07;;
12290;SDS011;6208;48.956;9.076;2024-01-15T13:54:51;7.20;;;5.80;;
12290;SDS011;6208;48.956;9.076;2024-01-15T13:57:35;8.63;;;6.23;;
12290;SDS011;6208;48.956;9.076;2024-01-15T14:00:20;5.73;;;5.03;;
12290;SDS011;6208;48.956;9.076;2024-01-15T14:03:04;6.23;;;5.63;;
12290;SDS011;6208;48.956;9.076;2024-01-15T14:05:48;8.93;;;6.50;;
12290;SDS011;6208;48.956;9.076;2024-01-15T14:08:35;6.33;;;5.70;;
12290;SDS011;6208;48.956;9.076;2024-01-15T14:11:20;6.80;;;5.77;;
12290;SDS011;6208;48.956;9.076;2024-01-15T14:14:04;6.83;;;6.10;;
12290;SDS011;6208;48.956;9.076;2024-01-15T14:16:49;6.23;;;5.57;;
12290;SDS011;6208;48.956;9.076;2024-01-15T14:19:33;8.03;;;5.90;;
12290;SDS011;6208;48.956;9.076;2024-01-15T14:22:17;6.47;;;5.80;;
12290;SDS011;6208;48.956;9.076;2024-01-15T14:25:01;6.47;;;5.80;;
12290;SDS011;6208;48.956;9.076;2024-01-15T14:27:47;6.70;;;6.00;;
12290;SDS011;6208;48.956;9.076;2024-01-15T14:30:31;6.63;;;5.80;;
12290;SDS011;6208;48.956;9.076;2024-01-15T14:33:16;7.80;;;6.37;;
12290;SDS011;6208;48.956;9.076;2024-01-15T14:36:00;6.63;;;5.73;;
12290;SDS011;6208;48.956;9.076;2024-01-15T14:38:45;7.90;;;6.70;;
12290;SDS011;6208;48.956;9.076;2024-01-15T14:41:29;7.33;;;5.97;;
12290;SDS011;6208;48.956;9.076;2024-01-15T14:44:13;7.03;;;6.30;;
12290;SDS011;6208;48.956;9.076;2024-01-15T14:46:58;8.20;;;6.20;;
12290;SDS011;6208;48.956;9.076;2024-01-15T14:49:42;9.33;;;7.07;;
12290;SDS011;6208;48.956;9.076;2024-01-15T14:52:27;6.83;;;6.17;;
12290;SDS011;6208;48.956;9.076;2024-01-15T14:55:10;8.47;;;6.17;;
12290;SDS011;6208;48.956;9.076;2024-01-15T14:57:55;8.30;;;6.57;;
12290;SDS011;6208;48.956;9.076;2024-01-15T15:00:39;7.43;;;6.57;;
12290;SDS011;6208;48.956;9.076;2024-01-15T15:03:23;7.43;;;6.67;;
12290;SDS011;6208;48.956;9.076;2024-01-15T15:06:07;7.50;;;6.63;;
12290;SDS011;6208;48.956;9.076;2024-01-15T15:08:51;7.83;;;7.03;;
12290;SDS011;6208;48.956;9.076;2024-01-15T15:11:36;8.20;;;7.27;;
12290;SDS011;6208;48.956;9.076;2024-01-15T15:14:21;7.47;;;6.73;;
12290;SDS011;6208;48.956;9.076;2024-01-15T15:17:05;10.30;;;7.27;;
12290;SDS011;6208;48.956;9.076;2024-01-15T15:19:49;8.40;;;6.87;;
12290;SDS011;6208;48.956;9.076;2024-01-15T15:22:36;8.40;;;7.30;;
12290;SDS011;6208;48.956;9.076;2024-01-15T15:25:21;7.77;;;6.50;;
12290;SDS011;6208;48.956;9.076;2024-01-15T15:28:05;8.93;;;7.13;;
12290;SDS011;6208;48.956;9.076;2024-01-15T15:30:49;7.67;;;6.13;;
12290;SDS011;6208;48.956;9.076;2024-01-15T15:33:34;9.43;;;6.80;;
12290;SDS011;6208;48.956;9.076;2024-01-15T15:36:18;9.13;;;7.03;;
12290;SDS011;6208;48.956;9.076;2024-01-15T15:39:02;8.07;;;6.17;;
12290;SDS011;6208;48.956;9.076;2024-01-15T15:41:46;8.90;;;7.60;;
12290;SDS011;6208;48.956;9.076;2024-01-15T15:44:32;9.57;;;6.50;;
12290;SDS011;6208;48.956;9.076;2024-01-15T15:47:16;8.03;;;6.73;;
12290;SDS011;6208;48.956;9.076;2024-01-15T15:50:00;9.60;;;7.67;;
12290;SDS011;6208;48.956;9.076;2024-01-15T15:52:45;8.10;;;6.37;;
12290;SDS011;6208;48.956;9.076;2024-01-15T15:55:29;7.17;;;6.30;;
12290;SDS011;6208;48.956;9.076;2024-01-15T15:58:13;8.47;;;6.50;;
12290;SDS011;6208;48.956;9.076;2024-01-15T16:00:58;9.37;;;6.37;;
12290;SDS011;6208;48.956;9.076;2024-01-15T16:03:42;8.63;;;6.53;;
12290;SDS011;6208;48.956;9.076;2024-01-15T16:06:26;7.90;;;6.53;;
12290;SDS011;6208;48.956;9.076;2024-01-15T16:09:11;9.00;;;6.63;;
12290;SDS011;6208;48.956;9.076;2024-01-15T16:11:55;8.87;;;6.77;;
12290;SDS011;6208;48.956;9.076;2024-01-15T16:14:39;7.87;;;6.80;;
12290;SDS011;6208;48.956;9.076;2024-01-15T16:17:23;7.57;;;6.23;;
12290;SDS011;6208;48.956;9.076;2024-01-15T16:20:08;7.57;;;6.53;;
12290;SDS011;6208;48.956;9.076;2024-01-15T16:22:52;7.43;;;6.67;;
12290;SDS011;6208;48.956;9.076;2024-01-15T16:25:36;7.50;;;5.70;;
12290;SDS011;6208;48.956;9.076;2024-01-15T16:28:21;7.77;;;6.50;;
12290;SDS011;6208;48.956;9.076;2024-01-15T16:31:05;8.70;;;6.30;;
12290;SDS011;6208;48.956;9.076;2024-01-15T16:33:49;8.40;;;5.63;;
12290;SDS011;6208;48.956;9.076;2024-01-15T16:36:33;7.57;;;6.23;;
12290;SDS011;6208;48.956;9.076;2024-01-15T16:39:17;6.50;;;5.60;;
12290;SDS011;6208;48.956;9.076;2024-01-15T16:42:01;7.33;;;5.80;;
12290;SDS011;6208;48.956;9.076;2024-01-15T16:44:46;6.73;;;5.87;;